Time;durP1;ratioP1;P1;durP2;ratioP2;P2;SDS_P1;SDS_P2;PMS_P1;PMS_P2;Temp;Humidity;BMP_temperature;BMP_pressure;BME280_temperature;BME280_humidity;BME280_pressure;Samples;Min_cycle;Max_cycle;Signal;HPM_P1;HPM_P2
2023/02/13 00:04:23;;;;;;;70.20;36.20;;;;;;;2.56;88.89;100513.27;435511;1250;111642;-39
2023/02/13 00:14:31;;;;;;;59.30;37.50;;;;;;;2.62;89.02;100512.64;435478;1253;108213;-40
2023/02/13 00:24:38;;;;;;;57.60;28.70;;;;;;;2.68;89.01;100499.48;435732;1261;99263;-40
2023/02/13 00:34:45;;;;;;;58.80;30.50;;;;;;;2.75;89.04;100494.94;435659;1253;107981;-39
2023/02/13 00:44:53;;;;;;;77.30;36.20;;;;;;;2.75;89.18;100490.95;437753;1253;98845;-39
2023/02/13 00:55:00;;;;;;;78.50;35.20;;;;;;;2.62;89.25;100481.22;435897;1254;111732;-40
2023/02/13 01:05:06;;;;;;;72.70;32.50;;;;;;;2.54;89.49;100482.13;435937;1251;109091;-39
2023/02/13 01:15:13;;;;;;;61.40;32.80;;;;;;;2.53;89.53;100479.61;435686;1251;99135;-40
2023/02/13 01:25:19;;;;;;;60.70;32.30;;;;;;;2.59;89.66;100472.67;435462;1254;107646;-40
2023/02/13 01:35:26;;;;;;;56.10;26.90;;;;;;;2.66;89.87;100462.79;435447;1253;98117;-40
2023/02/13 01:45:32;;;;;;;55.00;27.00;;;;;;;2.74;89.94;100456.69;435513;1254;111013;-40
2023/02/13 01:55:37;;;;;;;44.80;24.50;;;;;;;2.87;90.21;100453.45;435412;1256;107558;-40
2023/02/13 02:05:44;;;;;;;42.20;23.50;;;;;;;2.98;90.37;100449.80;435302;1254;98603;-39
2023/02/13 02:15:52;;;;;;;40.40;22.40;;;;;;;3.06;90.43;100437.41;436565;1251;107861;-42
2023/02/13 02:26:21;;;;;;;33.80;18.10;;;;;;;3.04;90.43;100432.57;436186;1247;99250;-40
2023/02/13 02:36:31;;;;;;;35.70;20.00;;;;;;;3.05;90.75;100432.33;436162;1254;111960;-40
2023/02/13 02:46:36;;;;;;;33.50;19.30;;;;;;;3.07;90.86;100428.48;436093;1252;107610;-40
2023/02/13 02:56:45;;;;;;;30.00;17.10;;;;;;;3.09;90.99;100436.66;436057;1247;97969;-39
2023/02/13 03:06:56;;;;;;;26.70;17.10;;;;;;;3.14;91.15;100441.12;435973;1252;107998;-39
2023/02/13 03:38:04;;;;;;;26.50;15.70;;;;;;;3.04;91.49;100456.39;436143;1247;107897;-39
2023/02/13 04:09:06;;;;;;;21.90;12.80;;;;;;;3.21;91.77;100454.65;436105;1247;99328;-41
2023/02/13 04:19:15;;;;;;;19.90;12.30;;;;;;;3.24;91.90;100450.71;436476;1253;111767;-40
2023/02/13 04:29:24;;;;;;;24.90;14.30;;;;;;;3.23;91.96;100450.21;436510;1247;106815;-39
2023/02/13 04:39:31;;;;;;;32.40;16.50;;;;;;;3.24;92.07;100439.64;436557;1248;98823;-40
2023/02/13 04:49:38;;;;;;;25.00;13.80;;;;;;;3.21;92.21;100436.48;436783;1260;108353;-38
2023/02/13 04:59:46;;;;;;;30.10;15.50;;;;;;;3.24;92.40;100441.93;436447;1251;98329;-40
2023/02/13 05:09:53;;;;;;;27.00;15.40;;;;;;;3.28;92.35;100448.86;436638;1247;111180;-39
2023/02/13 05:20:00;;;;;;;26.10;13.50;;;;;;;3.32;92.45;100445.73;436560;1246;109020;-40
2023/02/13 05:30:08;;;;;;;35.20;17.20;;;;;;;3.23;92.33;100446.06;436676;1250;99310;-40
2023/02/13 05:40:16;;;;;;;33.90;16.70;;;;;;;3.06;92.46;100446.04;436536;1247;108926;-39
2023/02/13 05:50:22;;;;;;;35.80;19.80;;;;;;;2.95;92.30;100444.70;436613;1248;99217;-38
2023/02/13 06:00:29;;;;;;;32.20;17.20;;;;;;;2.88;92.26;100446.73;436528;1251;110791;-39
2023/02/13 06:10:37;;;;;;;32.80;16.30;;;;;;;2.83;92.26;100452.11;436591;1247;107596;-40
2023/02/13 06:20:44;;;;;;;31.20;16.40;;;;;;;2.89;92.50;100453.27;436505;1246;99103;-40
2023/02/13 06:30:51;;;;;;;34.50;17.70;;;;;;;2.99;92.58;100465.12;436503;1251;106928;-40
2023/02/13 06:51:08;;;;;;;45.10;19.00;;;;;;;3.08;92.68;100468.27;436721;1248;112483;-40
2023/02/13 07:01:15;;;;;;;40.90;19.60;;;;;;;3.13;92.86;100467.04;436567;1250;108461;-39
2023/02/13 07:11:25;;;;;;;28.70;13.80;;;;;;;3.30;92.97;100469.33;436536;1250;99180;-40
2023/02/13 07:21:32;;;;;;;26.00;15.20;;;;;;;3.56;92.95;100465.35;436417;1251;107969;-39
2023/02/13 07:41:46;;;;;;;25.80;13.50;;;;;;;4.04;93.08;100459.33;436538;1251;111644;-39
2023/02/13 07:51:55;;;;;;;23.70;14.70;;;;;;;4.28;93.26;100445.24;436329;1247;108010;-44
2023/02/13 08:02:03;;;;;;;29.20;16.00;;;;;;;4.46;93.27;100445.59;436479;1251;99205;-39
2023/02/13 08:12:10;;;;;;;30.10;15.00;;;;;;;4.54;93.21;100439.14;436430;1251;108715;-39
2023/02/13 08:22:18;;;;;;;21.90;13.00;;;;;;;4.86;93.22;100439.65;436605;1248;99233;-40
2023/02/13 08:32:25;;;;;;;28.80;14.20;;;;;;;4.87;92.99;100441.65;436543;1251;110566;-39
2023/02/13 08:42:32;;;;;;;24.00;12.00;;;;;;;4.95;93.19;100442.06;436673;1248;109344;-40
2023/02/13 08:52:39;;;;;;;15.50;9.00;;;;;;;5.23;93.43;100433.77;436664;1251;98294;-40
2023/02/13 09:02:47;;;;;;;21.70;13.10;;;;;;;5.32;93.19;100432.36;436524;1246;107489;-40
2023/02/13 09:12:54;;;;;;;25.30;12.20;;;;;;;5.29;93.34;100431.04;436698;1247;98823;-40
2023/02/13 09:23:01;;;;;;;18.50;9.10;;;;;;;5.62;93.36;100436.52;436676;1250;112584;-39
2023/02/13 09:33:08;;;;;;;14.50;8.90;;;;;;;5.71;93.25;100432.40;436634;1251;108312;-39
2023/02/13 09:43:13;;;;;;;12.10;7.30;;;;;;;5.63;93.14;100432.38;436795;1251;98790;-41
2023/02/13 10:03:28;;;;;;;10.90;6.80;;;;;;;5.58;93.31;100436.20;436581;1246;99093;-40
2023/02/13 10:13:57;;;;;;;7.80;6.70;;;;;;;5.54;93.39;100437.80;436660;1247;111617;-39
2023/02/13 10:24:02;;;;;;;10.20;7.50;;;;;;;5.74;93.55;100420.48;436374;1251;107999;-39
2023/02/13 10:34:12;;;;;;;11.20;7.20;;;;;;;5.82;93.79;100409.63;436607;1248;99280;-40
2023/02/13 10:44:28;;;;;;;7.50;5.80;;;;;;;6.31;94.01;100396.26;436489;1247;107600;-39
2023/02/13 10:54:43;;;;;;;20.50;14.10;;;;;;;6.01;93.58;100388.92;436663;1247;99208;-40
2023/02/13 11:04:50;;;;;;;12.90;8.50;;;;;;;5.93;93.57;100380.93;436504;1253;112378;-39
2023/02/13 11:25:02;;;;;;;11.40;7.20;;;;;;;5.95;93.50;100357.71;436952;1247;98831;-39
2023/02/13 11:35:27;;;;;;;12.40;7.30;;;;;;;5.89;93.55;100359.41;436857;1246;108424;-40
2023/02/13 11:45:35;;;;;;;13.60;8.90;;;;;;;5.88;93.45;100363.00;436737;1250;99188;-40
2023/02/13 11:55:42;;;;;;;15.30;8.60;;;;;;;5.72;93.51;100363.07;436795;1246;111251;-38
2023/02/13 12:06:05;;;;;;;14.60;8.00;;;;;;;5.54;93.67;100375.05;437054;1247;108446;-40
2023/02/13 12:16:18;;;;;;;16.40;8.90;;;;;;;5.48;93.92;100377.73;437160;1251;98005;-40
2023/02/13 12:26:31;;;;;;;13.40;9.60;;;;;;;5.27;93.75;100365.61;436913;1247;106861;-39
2023/02/13 12:36:36;;;;;;;15.80;11.40;;;;;;;5.21;93.82;100363.66;436971;1247;98425;-40
2023/02/13 12:46:42;;;;;;;13.10;9.00;;;;;;;5.36;93.94;100350.29;437026;1251;110368;-40
2023/02/13 12:57:03;;;;;;;13.60;9.70;;;;;;;5.61;93.94;100342.48;437049;1246;107749;-40
2023/02/13 13:17:28;;;;;;;16.80;9.40;;;;;;;5.60;93.61;100342.54;437092;1247;107657;-40
2023/02/13 13:27:36;;;;;;;12.80;8.50;;;;;;;5.16;93.12;100346.34;437011;1250;97999;-39
2023/02/13 13:38:01;;;;;;;12.50;7.90;;;;;;;4.75;92.64;100345.36;437241;1251;111304;-39
2023/02/13 13:48:27;;;;;;;12.20;8.80;;;;;;;4.50;92.59;100342.73;437060;1252;108124;-39
2023/02/13 13:58:51;;;;;;;31.40;17.50;;;;;;;4.39;92.60;100347.82;437303;1247;98034;-39
2023/02/13 14:09:01;;;;;;;14.80;11.00;;;;;;;4.40;92.61;100351.50;437567;1252;106730;-40
2023/02/13 14:19:24;;;;;;;18.40;12.00;;;;;;;4.44;92.56;100349.93;436630;1252;99210;-40
2023/02/13 14:29:31;;;;;;;17.80;11.40;;;;;;;4.38;92.33;100343.04;435640;1250;113752;-39
2023/02/13 14:39:41;;;;;;;24.20;14.40;;;;;;;4.28;92.35;100337.00;435722;1252;107297;-39
2023/02/13 14:49:50;;;;;;;27.90;16.10;;;;;;;4.11;92.42;100319.38;437076;1252;97927;-40
2023/02/13 14:59:58;;;;;;;24.20;14.70;;;;;;;4.06;92.32;100312.45;435700;1250;111292;-40
2023/02/13 15:10:15;;;;;;;22.60;14.60;;;;;;;4.06;92.23;100313.08;435672;1252;108376;-40
2023/02/13 15:20:19;;;;;;;14.30;10.00;;;;;;;4.07;92.28;100310.56;437105;1248;99208;-38
2023/02/13 15:30:28;;;;;;;27.30;16.80;;;;;;;4.03;92.19;100314.11;437072;1250;394355;-40
2023/02/13 15:40:38;;;;;;;22.20;14.30;;;;;;;3.98;92.27;100307.77;437125;1246;99210;-38
2023/02/13 15:50:46;;;;;;;21.30;12.70;;;;;;;3.84;92.22;100299.36;437347;1247;112856;-40
2023/02/13 16:00:55;;;;;;;18.50;11.30;;;;;;;3.77;92.13;100294.59;437328;1247;108473;-39
2023/02/13 16:11:19;;;;;;;21.60;13.50;;;;;;;3.76;92.14;100307.00;437331;1246;98804;-39
2023/02/13 16:31:36;;;;;;;14.20;8.80;;;;;;;3.78;92.10;100299.02;437390;1251;99228;-40
2023/02/13 16:41:44;;;;;;;19.50;10.70;;;;;;;3.74;92.25;100284.92;437298;1252;112300;-40
2023/02/13 16:51:49;;;;;;;32.20;19.00;;;;;;;3.63;92.20;100286.85;437346;1250;107735;-40
2023/02/13 17:12:21;;;;;;;18.50;10.10;;;;;;;3.60;91.83;100280.17;437213;1251;108485;-38
2023/02/13 17:22:30;;;;;;;16.70;9.50;;;;;;;3.60;91.98;100281.71;437282;1253;99203;-39
2023/02/13 17:32:38;;;;;;;19.70;10.00;;;;;;;3.62;91.90;100291.27;437230;1252;111829;-40
2023/02/13 17:42:45;;;;;;;58.10;24.20;;;;;;;3.56;91.88;100286.10;437110;1249;109341;-39
2023/02/13 17:52:53;;;;;;;26.60;16.10;;;;;;;3.48;91.70;100257.77;437239;1252;99194;-39
2023/02/13 18:03:01;;;;;;;21.00;10.40;;;;;;;3.49;91.38;100273.38;437173;1250;112260;-41
2023/02/13 18:13:09;;;;;;;15.10;9.50;;;;;;;3.49;91.19;100274.01;437136;1260;106701;-39
2023/02/13 18:23:16;;;;;;;28.70;15.20;;;;;;;3.49;91.05;100281.05;437185;1252;97992;-40
2023/02/13 18:33:24;;;;;;;29.20;13.70;;;;;;;3.40;90.84;100294.95;437245;1260;111997;-39
2023/02/13 18:43:31;;;;;;;21.30;14.20;;;;;;;3.39;90.68;100295.20;437148;1252;108580;-40
2023/02/13 18:53:39;;;;;;;19.20;12.70;;;;;;;3.42;90.57;100305.95;437908;1253;99198;-39
2023/02/13 19:03:48;;;;;;;19.50;13.10;;;;;;;3.47;90.23;100311.39;438530;1250;106871;-40
2023/02/13 19:13:55;;;;;;;27.60;17.10;;;;;;;3.45;90.10;100312.60;437060;1252;99227;-38
2023/02/13 19:24:04;;;;;;;22.50;14.40;;;;;;;3.40;89.78;100315.15;436691;1251;110615;-39
2023/02/13 19:34:11;;;;;;;19.00;13.40;;;;;;;3.45;89.62;100322.34;436453;1261;105658;-42
2023/02/13 19:44:18;;;;;;;20.60;14.10;;;;;;;3.47;89.57;100331.55;436595;1251;99330;-39
2023/02/13 19:54:25;;;;;;;27.80;16.50;;;;;;;3.44;89.75;100341.09;436524;1251;107380;-40
2023/02/13 20:04:35;;;;;;;36.30;21.50;;;;;;;3.36;89.78;100354.05;437036;1261;99470;-40
2023/02/13 20:14:43;;;;;;;24.20;19.30;;;;;;;3.35;89.80;100363.93;436878;1256;110367;-39
2023/02/13 20:24:50;;;;;;;30.20;17.80;;;;;;;3.36;89.73;100365.34;436814;1248;106554;-40
2023/02/13 20:34:57;;;;;;;24.40;15.40;;;;;;;3.41;89.79;100373.96;438990;1251;99032;-39
2023/02/13 20:45:07;;;;;;;38.50;22.30;;;;;;;3.44;89.83;100379.68;438547;1251;108000;-40
2023/02/13 20:55:14;;;;;;;37.20;20.30;;;;;;;3.35;89.90;100373.86;440430;1250;99215;-40
2023/02/13 21:05:21;;;;;;;102.90;42.80;;;;;;;3.27;89.85;100380.27;439654;1250;99224;-39
2023/02/13 21:15:29;;;;;;;77.90;39.70;;;;;;;3.28;89.72;100381.11;439140;1253;113439;-39
2023/02/13 21:25:37;;;;;;;27.20;17.30;;;;;;;3.31;89.76;100375.74;436689;1251;107051;-40
2023/02/13 21:35:44;;;;;;;29.50;15.70;;;;;;;3.34;89.66;100375.51;436834;1253;97987;-40
2023/02/13 21:45:52;;;;;;;57.80;23.80;;;;;;;3.33;89.84;100382.57;436864;1250;109198;-41
2023/02/13 21:56:00;;;;;;;45.00;21.70;;;;;;;3.27;89.70;100385.23;436890;1251;99199;-41
2023/02/13 22:06:08;;;;;;;35.00;20.20;;;;;;;3.28;89.50;100373.98;436783;1252;112186;-40
2023/02/13 22:16:16;;;;;;;27.10;14.10;;;;;;;3.30;89.42;100362.74;436687;1248;107364;-40
2023/02/13 22:26:26;;;;;;;23.40;14.60;;;;;;;3.32;89.36;100360.53;436802;1248;98702;-39
2023/02/13 22:36:37;;;;;;;25.80;15.80;;;;;;;3.29;89.40;100352.63;436814;1251;108215;-40
2023/02/13 22:56:51;;;;;;;30.70;16.60;;;;;;;3.18;89.44;100357.08;436800;1250;111820;-40
2023/02/13 23:06:58;;;;;;;21.30;13.30;;;;;;;3.19;89.26;100360.88;436681;1260;108542;-39
2023/02/13 23:27:30;;;;;;;21.20;12.40;;;;;;;3.29;89.19;100353.77;436519;1248;108253;-39
2023/02/13 23:37:38;;;;;;;27.80;15.80;;;;;;;3.24;89.32;100341.77;436667;1260;97982;-41
2023/02/13 23:47:45;;;;;;;26.60;15.60;;;;;;;3.15;89.41;100340.47;436647;1248;112762;-39
2023/02/13 23:57:52;;;;;;;22.20;13.20;;;;;;;3.14;89.21;100324.35;436578;1247;107084;-38
